Time;durP1;ratioP1;P1;durP2;ratioP2;P2;SDS_P1;SDS_P2;PMS_P1;PMS_P2;Temp;Humidity;BMP_temperature;BMP_pressure;BME280_temperature;BME280_humidity;BME280_pressure;Samples;Min_cycle;Max_cycle;Signal;HPM_P1;HPM_P2
2024/04/05 00:01:32;;;;;;;6.53;2.05;;;;;;;11.03;100.00;97341.41;5035320;28;20419;-79
2024/04/05 00:04:03;;;;;;;6.50;2.13;;;;;;;11.00;100.00;97329.47;5025914;28;20411;-81
2024/04/05 00:06:31;;;;;;;5.32;2.10;;;;;;;11.00;100.00;97329.47;5018378;28;20913;-77
2024/04/05 00:08:57;;;;;;;8.32;2.50;;;;;;;11.03;100.00;97326.31;5019032;28;20803;-79
2024/04/05 00:11:23;;;;;;;3.28;1.80;;;;;;;11.03;100.00;97325.53;5019278;28;20495;-79
2024/04/05 00:13:50;;;;;;;8.45;2.10;;;;;;;11.06;100.00;97330.28;5022330;28;20396;-80
2024/04/05 00:16:16;;;;;;;7.32;2.05;;;;;;;11.02;100.00;97337.97;5018392;28;20420;-82
2024/04/05 00:18:42;;;;;;;7.97;1.88;;;;;;;11.02;100.00;97335.31;5018303;28;20962;-80
2024/04/05 00:21:08;;;;;;;5.18;2.45;;;;;;;11.04;100.00;97341.16;5019116;28;20404;-81
2024/04/05 00:23:37;;;;;;;3.13;1.60;;;;;;;11.02;100.00;97329.22;5018052;28;20856;-81
2024/04/05 00:26:04;;;;;;;4.00;2.00;;;;;;;11.01;100.00;97331.06;5018208;28;20421;-80
2024/04/05 00:28:31;;;;;;;6.40;1.80;;;;;;;11.00;100.00;97334.75;5018700;28;20393;-80
2024/04/05 00:30:57;;;;;;;3.60;1.70;;;;;;;10.99;100.00;97327.88;5018183;28;20408;-81
2024/04/05 00:33:24;;;;;;;7.30;2.00;;;;;;;10.98;100.00;97330.75;5017446;28;20404;-82
2024/04/05 00:35:51;;;;;;;2.37;1.60;;;;;;;10.95;100.00;97323.34;5018232;28;20401;-82
2024/04/05 00:38:18;;;;;;;6.55;2.17;;;;;;;10.92;100.00;97318.53;5017976;28;20407;-80
2024/04/05 00:40:46;;;;;;;4.43;1.80;;;;;;;10.93;100.00;97318.31;5017787;28;20421;-81
2024/04/05 00:43:12;;;;;;;9.20;2.43;;;;;;;10.87;100.00;97314.03;5018117;28;20401;-81
2024/04/05 00:45:39;;;;;;;3.67;1.90;;;;;;;10.89;100.00;97316.44;5018500;28;20417;-80
2024/04/05 00:48:06;;;;;;;5.07;2.03;;;;;;;10.91;100.00;97307.16;5019504;28;20432;-80
2024/04/05 00:50:34;;;;;;;5.67;2.30;;;;;;;10.89;100.00;97311.13;5033982;28;20415;-79
2024/04/05 00:53:02;;;;;;;3.55;2.15;;;;;;;10.88;100.00;97310.31;5034955;28;20405;-78
2024/04/05 00:55:29;;;;;;;3.83;1.60;;;;;;;10.86;100.00;97307.13;5023929;28;20401;-81
2024/04/05 00:58:02;;;;;;;3.17;1.60;;;;;;;10.87;100.00;97306.06;5018278;28;20411;-81
2024/04/05 01:00:29;;;;;;;8.20;1.85;;;;;;;10.85;100.00;97308.97;5024751;28;20401;-80
2024/04/05 01:02:56;;;;;;;4.75;1.80;;;;;;;10.83;100.00;97299.69;5017273;28;20423;-82
2024/04/05 01:05:22;;;;;;;5.28;1.73;;;;;;;10.82;100.00;97296.25;5017303;28;20416;-82
2024/04/05 01:07:50;;;;;;;6.32;2.03;;;;;;;10.83;100.00;97291.75;5016799;28;20405;-81
2024/04/05 01:10:16;;;;;;;5.90;2.00;;;;;;;10.86;100.00;97288.59;5016874;28;20392;-80
2024/04/05 01:12:42;;;;;;;6.65;2.20;;;;;;;10.84;100.00;97294.13;5017257;28;20495;-81
2024/04/05 01:15:11;;;;;;;10.68;2.10;;;;;;;10.82;100.00;97304.22;5016587;28;20405;-81
2024/04/05 01:17:37;;;;;;;9.20;2.40;;;;;;;10.78;100.00;97305.75;5016565;28;20401;-81
2024/04/05 01:20:05;;;;;;;7.03;2.20;;;;;;;10.81;100.00;97310.56;5016691;28;20912;-80
2024/04/05 01:22:40;;;;;;;5.72;2.20;;;;;;;10.80;100.00;97308.94;5016355;28;20574;-81
2024/04/05 01:25:09;;;;;;;7.45;2.25;;;;;;;10.82;100.00;97311.34;5016764;28;20439;-80
2024/04/05 01:27:35;;;;;;;10.00;2.17;;;;;;;10.84;100.00;97315.31;5016187;28;20413;-81
2024/04/05 01:30:01;;;;;;;6.85;2.30;;;;;;;10.84;100.00;97310.03;5016586;28;20408;-80
2024/04/05 01:32:27;;;;;;;5.20;2.35;;;;;;;10.87;100.00;97314.03;5016594;28;20483;-81
2024/04/05 01:34:53;;;;;;;4.82;1.80;;;;;;;10.83;100.00;97310.28;5016699;28;20754;-83
2024/04/05 01:37:20;;;;;;;4.13;1.95;;;;;;;10.82;100.00;97306.84;5017146;28;20882;-81
2024/04/05 01:39:46;;;;;;;8.02;2.20;;;;;;;10.84;100.00;97303.94;5016652;28;20786;-80
2024/04/05 01:42:14;;;;;;;3.83;1.77;;;;;;;10.76;100.00;97294.59;5016509;28;20436;-82
2024/04/05 01:44:40;;;;;;;4.07;1.90;;;;;;;10.77;100.00;97300.69;5016528;28;20484;-81
2024/04/05 01:47:07;;;;;;;6.75;2.03;;;;;;;10.73;100.00;97294.34;5017065;28;20551;-78
2024/04/05 01:49:33;;;;;;;6.10;2.30;;;;;;;10.72;100.00;97290.09;5017653;28;20407;-80
2024/04/05 01:51:59;;;;;;;4.90;1.88;;;;;;;10.72;100.00;97298.03;5016872;28;20491;-81
2024/04/05 01:54:26;;;;;;;6.53;1.83;;;;;;;10.72;100.00;97290.09;5016261;28;20397;-78
2024/04/05 01:56:52;;;;;;;4.05;1.80;;;;;;;10.70;100.00;97284.25;5016730;28;20400;-79
2024/04/05 01:59:19;;;;;;;6.03;2.30;;;;;;;10.69;100.00;97278.16;5017352;28;20412;-80
2024/04/05 02:01:46;;;;;;;4.50;2.00;;;;;;;10.70;100.00;97281.59;5019055;28;20396;-79
2024/04/05 02:04:13;;;;;;;8.10;2.85;;;;;;;10.68;100.00;97287.13;5019045;28;20454;-81
2024/04/05 02:06:40;;;;;;;5.28;2.20;;;;;;;10.61;100.00;97275.97;5028755;28;20425;-82
2024/04/05 02:09:06;;;;;;;5.22;2.15;;;;;;;10.61;100.00;97267.22;5028719;28;20397;-83
2024/04/05 02:11:32;;;;;;;4.07;1.90;;;;;;;10.64;100.00;97277.31;5028518;28;20408;-81
2024/04/05 02:13:59;;;;;;;9.02;2.30;;;;;;;10.60;100.00;97274.38;5028440;28;20427;-82
2024/04/05 02:16:26;;;;;;;4.55;1.80;;;;;;;10.57;100.00;97266.94;5032795;28;20440;-84
2024/04/05 02:18:52;;;;;;;4.63;2.03;;;;;;;10.52;100.00;97280.16;5032989;28;20590;-81
2024/04/05 02:21:18;;;;;;;4.03;2.10;;;;;;;10.51;100.00;97272.47;5021457;28;20773;-81
2024/04/05 02:23:45;;;;;;;8.05;2.30;;;;;;;10.50;100.00;97278.81;5029104;28;20418;-82
2024/04/05 02:26:11;;;;;;;6.38;2.17;;;;;;;10.48;100.00;97279.84;5029778;28;20453;-82
2024/04/05 02:28:37;;;;;;;3.75;2.08;;;;;;;10.45;100.00;97275.03;5029641;28;20432;-82
2024/04/05 02:31:08;;;;;;;7.55;2.20;;;;;;;10.43;100.00;97276.38;5030071;28;20404;-82
2024/04/05 02:33:36;;;;;;;4.05;2.00;;;;;;;10.41;100.00;97281.09;5030032;28;20405;-82
2024/04/05 02:36:02;;;;;;;2.83;1.60;;;;;;;10.36;100.00;97278.44;5030000;28;20424;-81
2024/04/05 02:38:30;;;;;;;5.43;2.30;;;;;;;10.36;100.00;97281.88;5029766;28;20457;-81
2024/04/05 02:40:56;;;;;;;6.05;2.10;;;;;;;10.31;100.00;97281.81;5030099;28;20449;-80
2024/04/05 02:43:22;;;;;;;3.72;1.90;;;;;;;10.28;100.00;97281.53;5030540;28;20407;-82
2024/04/05 02:45:49;;;;;;;4.60;1.73;;;;;;;10.26;100.00;97280.97;5032064;28;20427;-81
2024/04/05 02:48:16;;;;;;;8.40;2.42;;;;;;;10.29;100.00;97288.41;5029561;28;20416;-82
2024/04/05 02:50:43;;;;;;;5.85;2.28;;;;;;;10.26;100.00;97287.06;5030474;28;20814;-81
2024/04/05 02:53:09;;;;;;;6.32;2.00;;;;;;;10.25;100.00;97290.75;5035465;28;20417;-82
2024/04/05 02:55:35;;;;;;;8.27;2.20;;;;;;;10.23;100.00;97290.19;5033328;28;20427;-82
2024/04/05 02:58:01;;;;;;;8.02;2.28;;;;;;;10.24;100.00;97288.34;5029183;28;20400;-82
2024/04/05 03:00:27;;;;;;;5.30;2.53;;;;;;;10.25;100.00;97289.97;5028008;28;20474;-79
2024/04/05 03:02:54;;;;;;;6.07;2.20;;;;;;;10.22;100.00;97288.63;5027312;28;20404;-80
2024/04/05 03:05:20;;;;;;;5.43;1.98;;;;;;;10.21;100.00;97294.97;5028238;28;20404;-81
2024/04/05 03:07:49;;;;;;;4.82;2.03;;;;;;;10.19;100.00;97290.97;5028196;28;20397;-81
2024/04/05 03:10:16;;;;;;;4.28;1.75;;;;;;;10.19;100.00;97293.59;5027015;28;20409;-81
2024/04/05 03:12:42;;;;;;;4.40;1.92;;;;;;;10.17;100.00;97293.84;5026505;28;20488;-81
2024/04/05 03:15:09;;;;;;;4.63;2.00;;;;;;;10.16;100.00;97296.72;5028522;28;20401;-81
2024/04/05 03:17:36;;;;;;;4.50;2.00;;;;;;;10.15;100.00;97292.50;5029481;28;20758;-80
2024/04/05 03:20:02;;;;;;;5.97;2.42;;;;;;;10.17;100.00;97304.44;5029421;28;20473;-80
2024/04/05 03:22:28;;;;;;;5.95;2.08;;;;;;;10.16;100.00;97302.81;5029766;28;20439;-81
2024/04/05 03:24:55;;;;;;;7.72;2.33;;;;;;;10.15;100.00;97295.91;5029274;28;20428;-81
2024/04/05 03:27:22;;;;;;;5.65;2.20;;;;;;;10.13;100.00;97297.22;5031992;28;20474;-81
2024/04/05 03:29:49;;;;;;;5.10;2.37;;;;;;;10.12;100.00;97295.63;5032982;28;20410;-81
2024/04/05 03:32:16;;;;;;;5.90;2.42;;;;;;;10.14;100.00;97290.91;5033211;28;20405;-80
2024/04/05 03:34:45;;;;;;;3.85;1.83;;;;;;;10.12;100.00;97292.97;5032469;28;20401;-81
2024/04/05 03:37:11;;;;;;;4.88;1.95;;;;;;;10.13;100.00;97291.94;5032941;28;20401;-80
2024/04/05 03:39:37;;;;;;;5.38;2.13;;;;;;;10.13;100.00;97289.28;5033005;28;20472;-81
2024/04/05 03:42:05;;;;;;;3.67;1.92;;;;;;;10.11;100.00;97289.53;5033056;28;20401;-81
2024/04/05 03:44:32;;;;;;;5.53;2.00;;;;;;;10.09;100.00;97286.34;5032851;28;20475;-82
2024/04/05 03:46:58;;;;;;;6.57;2.13;;;;;;;10.07;100.00;97286.56;5032761;28;20425;-81
2024/04/05 03:49:25;;;;;;;4.38;2.00;;;;;;;10.04;100.00;97276.53;5033414;28;20403;-80
2024/04/05 03:51:51;;;;;;;6.97;2.67;;;;;;;10.07;100.00;97272.59;5039316;28;20409;-81
2024/04/05 03:54:17;;;;;;;5.28;2.25;;;;;;;10.04;100.00;97275.72;5033955;28;20419;-80
2024/04/05 03:56:44;;;;;;;6.70;2.27;;;;;;;10.05;100.00;97274.69;5030178;28;20408;-80
2024/04/05 03:59:11;;;;;;;13.70;2.70;;;;;;;10.04;100.00;97276.53;5027209;28;20431;-80
2024/04/05 04:01:38;;;;;;;5.15;2.15;;;;;;;10.02;100.00;97273.31;5027959;28;20400;-81
2024/04/05 04:04:04;;;;;;;9.43;2.50;;;;;;;10.03;100.00;97282.06;5029350;28;20408;-79
2024/04/05 04:06:30;;;;;;;6.77;2.57;;;;;;;10.00;100.00;97288.63;5031355;28;20408;-81
2024/04/05 04:08:56;;;;;;;9.45;2.42;;;;;;;10.04;100.00;97292.38;5028985;28;20717;-81
2024/04/05 04:11:23;;;;;;;5.55;2.28;;;;;;;10.02;100.00;97294.47;5024451;28;20425;-81
2024/04/05 04:13:49;;;;;;;6.20;2.70;;;;;;;10.05;100.00;97294.00;5030894;28;20400;-81
2024/04/05 04:16:16;;;;;;;6.55;2.28;;;;;;;10.02;100.00;97297.13;5016622;28;20413;-81
2024/04/05 04:18:46;;;;;;;9.53;2.60;;;;;;;10.00;100.00;97296.56;5032706;28;20384;-82
2024/04/05 04:21:12;;;;;;;5.38;2.10;;;;;;;10.00;100.00;97306.34;5037506;28;20419;-80
2024/04/05 04:23:39;;;;;;;6.82;2.30;;;;;;;9.97;100.00;97294.44;5038794;28;20415;-81
2024/04/05 04:26:05;;;;;;;6.75;2.20;;;;;;;9.99;100.00;97291.53;5036028;28;20440;-80
2024/04/05 04:28:32;;;;;;;8.80;2.80;;;;;;;9.98;100.00;97297.88;5030807;28;20404;-81
2024/04/05 04:30:59;;;;;;;4.40;2.15;;;;;;;9.98;100.00;97292.59;5031062;28;20469;-80
2024/04/05 04:33:26;;;;;;;8.35;2.38;;;;;;;9.96;100.00;97295.47;5030980;28;20424;-78
2024/04/05 04:35:52;;;;;;;8.88;2.38;;;;;;;9.96;100.00;97290.19;5031094;28;20400;-81
2024/04/05 04:38:19;;;;;;;8.05;2.40;;;;;;;9.94;100.00;97283.53;5028685;28;20405;-82
2024/04/05 04:40:45;;;;;;;5.53;2.40;;;;;;;9.97;100.00;97294.44;5029226;28;20408;-80
2024/04/05 04:43:11;;;;;;;7.38;2.70;;;;;;;9.93;100.00;97288.03;5022402;28;20448;-82
2024/04/05 04:45:38;;;;;;;4.45;2.35;;;;;;;9.90;100.00;97291.19;5031335;28;20467;-81
2024/04/05 04:48:06;;;;;;;9.23;2.60;;;;;;;9.92;100.00;97289.06;5030663;28;20404;-81
2024/04/05 04:50:33;;;;;;;6.18;2.85;;;;;;;9.90;100.00;97291.19;5030978;28;20397;-80
2024/04/05 04:52:59;;;;;;;6.68;2.58;;;;;;;9.92;100.00;97286.44;5029263;28;20392;-82
2024/04/05 04:55:25;;;;;;;7.82;2.53;;;;;;;9.87;100.00;97289.03;5029857;28;20401;-80
2024/04/05 04:57:52;;;;;;;7.88;2.30;;;;;;;9.87;100.00;97299.59;5029290;28;20395;-80
2024/04/05 05:00:18;;;;;;;8.18;2.42;;;;;;;9.84;100.00;97299.31;5030210;28;20472;-81
2024/04/05 05:02:44;;;;;;;9.55;3.45;;;;;;;9.87;100.00;97302.25;5029000;28;20460;-80
2024/04/05 05:05:11;;;;;;;7.38;2.60;;;;;;;9.84;100.00;97300.13;5026041;28;20425;-81
2024/04/05 05:07:39;;;;;;;7.20;2.95;;;;;;;9.78;100.00;97287.06;5028565;28;20416;-81
2024/04/05 05:10:09;;;;;;;8.20;2.85;;;;;;;9.77;100.00;97290.78;5020014;28;20405;-80
2024/04/05 05:12:40;;;;;;;6.97;2.63;;;;;;;9.78;100.00;97290.50;5017484;28;20901;-80
2024/04/05 05:15:06;;;;;;;7.80;2.22;;;;;;;9.79;100.00;97299.25;5035641;28;20409;-79
2024/04/05 05:17:33;;;;;;;8.32;2.85;;;;;;;9.82;100.00;97296.13;5027274;28;20408;-80
2024/04/05 05:19:59;;;;;;;8.18;2.30;;;;;;;9.78;100.00;97300.28;5027932;28;20401;-82
2024/04/05 05:22:25;;;;;;;5.70;2.30;;;;;;;9.77;100.00;97296.06;5016881;28;20440;-82
2024/04/05 05:24:53;;;;;;;7.80;2.53;;;;;;;9.79;100.00;97304.53;5025345;28;20401;-82
2024/04/05 05:27:20;;;;;;;5.28;2.63;;;;;;;9.84;100.00;97302.75;5027616;28;20530;-80
2024/04/05 05:29:46;;;;;;;9.57;2.70;;;;;;;9.83;100.00;97298.50;5027433;28;20419;-82
2024/04/05 05:32:12;;;;;;;8.70;3.10;;;;;;;9.90;100.00;97298.31;5028923;28;20439;-80
2024/04/05 05:34:39;;;;;;;6.60;2.35;;;;;;;9.91;100.00;97297.28;5022843;28;20403;-81
2024/04/05 05:37:05;;;;;;;5.85;2.03;;;;;;;9.93;100.00;97298.59;5017706;28;21266;-81
2024/04/05 05:39:32;;;;;;;6.57;2.17;;;;;;;9.97;100.00;97299.72;5028526;28;20401;-82
2024/04/05 05:42:00;;;;;;;4.75;2.15;;;;;;;9.98;100.00;97296.03;5029064;28;20758;-81
2024/04/05 05:44:26;;;;;;;5.63;2.50;;;;;;;10.01;100.00;97292.88;5029618;28;20456;-82
2024/04/05 05:46:52;;;;;;;7.60;2.70;;;;;;;10.11;100.00;97292.19;5029708;28;20421;-81
2024/04/05 05:49:19;;;;;;;6.03;2.60;;;;;;;10.14;100.00;97280.31;5028917;28;20404;-81
2024/04/05 05:51:45;;;;;;;7.45;2.50;;;;;;;10.16;100.00;97276.34;5029893;28;20404;-81
2024/04/05 05:54:12;;;;;;;6.57;2.35;;;;;;;10.20;100.00;97288.06;5029095;28;20401;-79
2024/04/05 05:56:38;;;;;;;6.90;2.47;;;;;;;10.23;100.00;97284.09;5029388;28;20401;-82
2024/04/05 05:59:05;;;;;;;5.43;2.30;;;;;;;10.32;100.00;97279.97;5029598;28;20543;-82
2024/04/05 06:01:31;;;;;;;7.00;2.30;;;;;;;10.36;100.00;97278.44;5029305;28;20388;-82
2024/04/05 06:04:00;;;;;;;4.97;2.08;;;;;;;10.59;100.00;97270.16;5028496;28;20458;-81
2024/04/05 06:06:27;;;;;;;11.75;2.40;;;;;;;10.69;100.00;97280.78;5028434;28;20423;-80
2024/04/05 06:08:53;;;;;;;9.23;2.50;;;;;;;10.75;100.00;97279.78;5028288;28;20412;-80
2024/04/05 06:11:19;;;;;;;6.90;2.05;;;;;;;10.91;100.00;97290.47;5018881;28;20439;-81
2024/04/05 06:13:45;;;;;;;4.15;1.90;;;;;;;11.22;100.00;97294.91;5026353;28;20409;-80
2024/04/05 06:16:13;;;;;;;6.60;2.20;;;;;;;11.15;100.00;97297.78;5025810;28;20405;-81
2024/04/05 06:18:43;;;;;;;7.03;2.00;;;;;;;11.13;100.00;97301.72;5025557;28;20460;-82
2024/04/05 06:21:09;;;;;;;8.15;2.00;;;;;;;11.10;100.00;97300.41;5026152;28;20452;-80
2024/04/05 06:23:35;;;;;;;8.55;2.08;;;;;;;11.19;100.00;97296.22;5028656;28;20427;-81
2024/04/05 06:26:01;;;;;;;4.60;1.70;;;;;;;11.17;100.00;97292.22;5028941;28;20493;-81
2024/04/05 06:28:28;;;;;;;8.65;2.20;;;;;;;11.24;100.00;97296.25;5029091;28;20405;-80
2024/04/05 06:30:54;;;;;;;4.60;1.80;;;;;;;11.40;100.00;97296.31;5028786;28;20443;-82
2024/04/05 06:33:21;;;;;;;6.70;1.83;;;;;;;11.37;100.00;97300.28;5029431;28;20408;-81
2024/04/05 06:35:57;;;;;;;7.25;1.75;;;;;;;11.53;100.00;97301.16;5029034;28;20408;-79
2024/04/05 06:38:24;;;;;;;6.05;1.77;;;;;;;11.62;100.00;97305.69;5028573;28;20409;-82
2024/04/05 06:40:56;;;;;;;6.22;2.25;;;;;;;11.80;100.00;97296.50;5027041;28;20396;-78
2024/04/05 06:43:22;;;;;;;6.82;1.98;;;;;;;11.89;100.00;97278.22;5027939;28;20488;-79
2024/04/05 06:45:53;;;;;;;4.95;1.85;;;;;;;12.13;100.00;97268.72;5018032;28;20417;-78
2024/04/05 06:48:21;;;;;;;3.92;1.67;;;;;;;12.36;100.00;97273.53;5015312;28;20400;-81
2024/04/05 06:50:48;;;;;;;6.37;2.83;;;;;;;12.64;100.00;97271.38;5015187;28;20439;-81
2024/04/05 06:53:14;;;;;;;3.83;1.65;;;;;;;12.86;100.00;97265.78;5015658;28;20400;-80
2024/04/05 06:55:45;;;;;;;6.82;1.70;;;;;;;13.29;100.00;97253.78;5012178;28;20393;-79
2024/04/05 06:58:12;;;;;;;4.55;1.75;;;;;;;13.38;100.00;97247.59;5006589;28;20424;-81
2024/04/05 07:00:39;;;;;;;4.18;1.90;;;;;;;13.27;100.00;97248.72;5004876;28;20406;-81
2024/04/05 07:03:05;;;;;;;3.78;1.60;;;;;;;13.35;100.00;97248.16;5008581;28;20420;-80
2024/04/05 07:05:33;;;;;;;4.83;1.60;;;;;;;13.33;100.00;97242.31;5008639;28;21583;-81
2024/04/05 07:07:59;;;;;;;4.72;1.40;;;;;;;13.35;100.00;97252.69;5011117;28;20393;-80
2024/04/05 07:10:26;;;;;;;2.83;1.70;;;;;;;13.18;100.00;97253.81;5018100;28;20416;-80
2024/04/05 07:12:53;;;;;;;3.35;1.60;;;;;;;13.26;100.00;97260.41;5015382;28;20468;-81
2024/04/05 07:15:20;;;;;;;3.28;1.40;;;;;;;13.25;100.00;97264.13;5031247;28;20401;-81
2024/04/05 07:17:51;;;;;;;4.50;2.10;;;;;;;13.29;100.00;97261.75;5019566;28;20424;-79
2024/04/05 07:20:18;;;;;;;5.93;1.40;;;;;;;13.27;100.00;97256.69;5016787;28;20397;-80
2024/04/05 07:22:46;;;;;;;3.53;1.58;;;;;;;13.29;100.00;97254.56;5004166;28;20501;-81
2024/04/05 07:25:13;;;;;;;5.45;1.55;;;;;;;13.66;100.00;97258.69;5019646;28;20405;-80
2024/04/05 07:27:39;;;;;;;3.08;1.40;;;;;;;13.57;100.00;97261.91;5019658;28;20909;-81
2024/04/05 07:30:06;;;;;;;4.18;1.60;;;;;;;13.51;100.00;97251.56;5015006;28;20409;-80
2024/04/05 07:32:36;;;;;;;4.50;1.60;;;;;;;13.67;100.00;97254.94;5012860;28;20411;-81
2024/04/05 07:35:02;;;;;;;3.53;1.40;;;;;;;13.82;100.00;97246.88;5014734;28;20459;-80
2024/04/05 07:37:29;;;;;;;3.30;1.35;;;;;;;13.79;100.00;97240.25;5018856;28;20451;-79
2024/04/05 07:39:57;;;;;;;4.05;1.55;;;;;;;13.76;100.00;97232.81;5018262;28;20408;-78
2024/04/05 07:42:23;;;;;;;5.53;1.60;;;;;;;13.74;100.00;97234.16;5019359;28;20408;-78
2024/04/05 07:44:55;;;;;;;4.75;1.42;;;;;;;13.82;100.00;97241.56;5010776;28;20400;-79
2024/04/05 07:47:21;;;;;;;4.93;1.20;;;;;;;13.99;100.00;97235.84;5019837;28;20602;-80
2024/04/05 07:49:51;;;;;;;3.95;1.83;;;;;;;13.80;100.00;97228.53;5021905;28;20465;-81
2024/04/05 07:52:17;;;;;;;8.77;1.42;;;;;;;13.84;100.00;97236.75;5019599;28;20400;-79
2024/04/05 07:54:43;;;;;;;4.33;1.30;;;;;;;13.91;100.00;97240.69;5025415;28;20480;-83
2024/04/05 07:57:12;;;;;;;5.60;1.50;;;;;;;13.97;100.00;97244.13;5024484;28;20575;-81
2024/04/05 07:59:38;;;;;;;6.15;1.73;;;;;;;14.19;100.00;97235.75;5018615;28;20426;-81
2024/04/05 08:02:04;;;;;;;3.42;1.60;;;;;;;14.17;100.00;97245.88;5022830;28;20409;-79
2024/04/05 08:04:31;;;;;;;4.73;1.53;;;;;;;14.15;100.00;97232.81;5024996;28;20890;-79
2024/04/05 08:06:58;;;;;;;4.25;1.35;;;;;;;14.31;100.00;97239.63;5020208;28;20425;-82
2024/04/05 08:09:24;;;;;;;5.78;1.50;;;;;;;14.21;100.00;97242.34;5020771;28;20806;-80
2024/04/05 08:11:53;;;;;;;4.65;1.30;;;;;;;14.35;100.00;97239.88;5018022;28;20446;-82
2024/04/05 08:14:20;;;;;;;3.38;1.40;;;;;;;14.57;100.00;97232.28;5015838;28;20454;-82
2024/04/05 08:16:46;;;;;;;4.05;1.50;;;;;;;14.57;100.00;97220.81;5020973;28;20405;-82
2024/04/05 08:19:12;;;;;;;3.95;1.35;;;;;;;14.75;100.00;97229.97;5020357;28;20469;-82
2024/04/05 08:21:39;;;;;;;3.67;1.33;;;;;;;14.87;100.00;97227.72;5019517;28;20464;-81
2024/04/05 08:24:05;;;;;;;3.17;1.35;;;;;;;14.97;100.00;97230.28;5017975;28;20429;-82
2024/04/05 08:26:33;;;;;;;3.03;1.35;;;;;;;15.04;100.00;97236.84;5023861;28;20417;-82
2024/04/05 08:29:00;;;;;;;7.25;1.60;;;;;;;15.18;100.00;97233.53;5018798;28;20416;-81
2024/04/05 08:31:28;;;;;;;4.43;1.47;;;;;;;15.26;100.00;97230.25;5025910;28;20411;-80
2024/04/05 08:33:54;;;;;;;6.47;1.77;;;;;;;15.36;100.00;97232.78;5024218;28;20400;-83
2024/04/05 08:36:20;;;;;;;5.00;1.50;;;;;;;15.54;100.00;97241.94;5024916;28;20426;-82
2024/04/05 08:38:47;;;;;;;4.00;1.48;;;;;;;15.73;100.00;97238.19;5021361;28;20408;-81
2024/04/05 08:41:17;;;;;;;6.40;1.70;;;;;;;16.31;100.00;97235.25;5026266;28;20958;-80
2024/04/05 08:43:45;;;;;;;3.97;1.23;;;;;;;16.20;100.00;97225.78;5023017;28;20423;-79
2024/04/05 08:46:11;;;;;;;3.58;1.50;;;;;;;16.36;100.00;97221.78;5026682;28;20425;-81
2024/04/05 08:48:41;;;;;;;4.20;1.20;;;;;;;16.43;100.00;97216.88;5022975;28;20484;-80
2024/04/05 08:51:10;;;;;;;3.53;1.00;;;;;;;16.42;100.00;97220.63;5026960;28;20477;-80
2024/04/05 08:53:36;;;;;;;6.03;1.90;;;;;;;16.50;100.00;97211.94;5028082;28;20393;-81
2024/04/05 08:56:06;;;;;;;3.00;1.10;;;;;;;16.60;100.00;97210.97;5011896;28;20406;-83
2024/04/05 08:58:32;;;;;;;7.35;1.40;;;;;;;16.78;100.00;97209.34;5020359;28;20614;-83
2024/04/05 09:00:59;;;;;;;4.57;1.25;;;;;;;17.13;100.00;97207.91;5024383;28;20495;-83
2024/04/05 09:03:25;;;;;;;4.07;1.20;;;;;;;17.41;100.00;97214.84;5024145;28;20416;-81
2024/04/05 09:05:54;;;;;;;2.65;1.05;;;;;;;17.67;100.00;97215.09;5020063;28;20399;-80
2024/04/05 09:08:21;;;;;;;5.77;1.20;;;;;;;17.74;100.00;97210.94;5023987;28;20427;-80
2024/04/05 09:10:49;;;;;;;2.88;1.20;;;;;;;17.91;100.00;97194.22;5023091;28;20418;-83
2024/04/05 09:13:17;;;;;;;2.38;1.05;;;;;;;18.05;100.00;97188.81;5022510;28;20408;-82
2024/04/05 09:15:49;;;;;;;3.35;1.40;;;;;;;18.24;100.00;97194.81;5017093;28;20880;-82
2024/04/05 09:18:25;;;;;;;4.15;0.98;;;;;;;18.69;100.00;97187.53;5017089;28;20401;-82
2024/04/05 09:20:52;;;;;;;4.70;1.52;;;;;;;19.10;100.00;97199.84;5028633;28;20403;-84
2024/04/05 09:23:19;;;;;;;3.78;1.00;;;;;;;19.15;100.00;97192.47;5029367;28;20404;-82
2024/04/05 09:25:45;;;;;;;1.67;0.90;;;;;;;19.50;100.00;97187.22;5020972;28;20407;-83
2024/04/05 09:28:16;;;;;;;5.07;1.40;;;;;;;20.23;100.00;97190.88;5025086;28;20413;-82
2024/04/05 09:30:43;;;;;;;2.30;1.10;;;;;;;20.29;100.00;97195.81;5016754;28;20431;-82
2024/04/05 09:33:18;;;;;;;4.05;1.42;;;;;;;20.59;100.00;97177.91;5030417;28;20410;-84
2024/04/05 09:35:46;;;;;;;3.40;1.05;;;;;;;20.35;100.00;97180.31;5028715;28;20404;-82
2024/04/05 09:38:14;;;;;;;2.75;0.95;;;;;;;20.46;100.00;97174.28;5021687;28;20406;-86
2024/04/05 09:40:41;;;;;;;2.72;1.05;;;;;;;20.54;100.00;97171.91;5031076;28;20507;-83
2024/04/05 09:43:08;;;;;;;4.60;0.95;;;;;;;20.79;100.00;97177.22;5017407;28;20492;-84
2024/04/05 09:45:38;;;;;;;2.58;0.98;;;;;;;21.32;100.00;97167.81;5005889;28;20399;-82
2024/04/05 09:48:05;;;;;;;4.50;0.80;;;;;;;21.04;100.00;97166.69;5021510;28;20455;-84
2024/04/05 09:50:34;;;;;;;2.17;0.82;;;;;;;21.27;100.00;97159.16;5006173;28;20402;-83
2024/04/05 09:53:04;;;;;;;3.10;1.20;;;;;;;21.47;100.00;97158.38;5006879;28;20459;-83
2024/04/05 09:55:39;;;;;;;4.32;1.17;;;;;;;21.83;100.00;97164.00;5025016;28;20416;-81
2024/04/05 09:58:06;;;;;;;2.17;0.80;;;;;;;21.52;100.00;97166.28;5027167;28;20397;-82
2024/04/05 10:00:36;;;;;;;4.40;1.10;;;;;;;21.90;100.00;97164.25;5026349;28;20401;-81
2024/04/05 10:03:03;;;;;;;2.40;0.90;;;;;;;21.77;100.00;97161.81;5020195;28;20397;-80
2024/04/05 10:05:32;;;;;;;3.53;0.90;;;;;;;21.57;100.00;97163.41;5018593;28;20918;-82
2024/04/05 10:08:09;;;;;;;1.93;1.00;;;;;;;21.62;100.00;97155.13;5018561;28;20413;-81
2024/04/05 10:10:38;;;;;;;1.70;0.85;;;;;;;21.61;100.00;97142.75;5018315;28;20405;-81
2024/04/05 10:13:14;;;;;;;1.67;0.65;;;;;;;21.88;100.00;97139.53;5023113;28;20401;-83
2024/04/05 10:15:52;;;;;;;2.55;0.70;;;;;;;22.74;100.00;97133.34;5011405;28;20405;-81
2024/04/05 10:18:24;;;;;;;1.63;0.80;;;;;;;22.42;100.00;97139.53;5015122;28;20410;-82
2024/04/05 10:20:59;;;;;;;3.45;0.77;;;;;;;22.52;100.00;97114.06;5023603;28;20399;-83
2024/04/05 10:23:25;;;;;;;1.70;0.73;;;;;;;22.66;100.00;97104.50;5028770;28;20399;-83
2024/04/05 10:25:53;;;;;;;2.70;0.80;;;;;;;22.93;100.00;97111.19;5019442;28;20399;-84
2024/04/05 10:28:21;;;;;;;3.77;0.93;;;;;;;23.18;100.00;97109.28;5024148;28;20497;-83
2024/04/05 10:30:49;;;;;;;2.33;0.82;;;;;;;24.22;100.00;97117.34;5030043;28;20405;-84
2024/04/05 10:33:18;;;;;;;2.78;0.80;;;;;;;24.34;100.00;97107.63;5028733;28;20404;-84
2024/04/05 10:35:45;;;;;;;3.75;0.80;;;;;;;24.94;100.00;97093.69;5020586;28;22437;-82
2024/04/05 10:38:11;;;;;;;1.67;0.60;;;;;;;25.01;100.00;97104.69;5024832;28;20413;-85
2024/04/05 10:40:38;;;;;;;2.30;0.60;;;;;;;24.59;100.00;97088.16;5030597;28;20397;-80
2024/04/05 10:43:09;;;;;;;2.47;0.68;;;;;;;24.73;100.00;97084.25;5026807;28;20465;-82
2024/04/05 10:45:36;;;;;;;2.42;0.70;;;;;;;24.53;100.00;97080.66;5025974;28;20419;-86
2024/04/05 10:48:04;;;;;;;3.03;0.85;;;;;;;23.87;100.00;97103.63;5020518;28;20420;-81
2024/04/05 10:50:34;;;;;;;4.32;0.70;;;;;;;23.14;100.00;97090.28;5022732;28;20396;-82
2024/04/05 10:53:01;;;;;;;3.40;0.70;;;;;;;22.85;100.00;97095.91;5032327;28;20503;-83
2024/04/05 10:55:27;;;;;;;3.42;1.00;;;;;;;22.37;100.00;97077.72;5030988;28;20405;-83
2024/04/05 10:57:53;;;;;;;2.38;0.80;;;;;;;22.27;100.00;97086.22;5031288;28;20412;-83
2024/04/05 11:00:21;;;;;;;3.72;1.10;;;;;;;22.04;100.00;97083.13;5013345;28;20808;-82
2024/04/05 11:02:49;;;;;;;3.33;0.73;;;;;;;21.93;100.00;97074.66;5031032;28;20447;-82
2024/04/05 11:05:20;;;;;;;1.70;0.80;;;;;;;22.07;100.00;97079.78;5031350;28;20496;-84
2024/04/05 11:07:56;;;;;;;2.40;0.80;;;;;;;22.24;100.00;97086.91;5029903;28;20421;-81
2024/04/05 11:10:22;;;;;;;1.52;0.70;;;;;;;22.33;100.00;97080.28;5029809;28;20419;-84
2024/04/05 11:12:48;;;;;;;5.10;0.90;;;;;;;22.75;100.00;97093.66;5029925;28;20400;-82
2024/04/05 11:15:18;;;;;;;3.38;1.10;;;;;;;22.62;100.00;97084.75;5030904;28;20400;-83
2024/04/05 11:17:46;;;;;;;2.15;0.60;;;;;;;22.62;100.00;97089.34;5033807;28;20400;-83
2024/04/05 11:20:13;;;;;;;2.72;0.90;;;;;;;22.70;100.00;97104.66;5031298;28;20473;-81
2024/04/05 11:22:39;;;;;;;1.73;0.70;;;;;;;22.58;100.00;97101.91;5028634;28;20461;-80
2024/04/05 11:25:08;;;;;;;3.00;0.77;;;;;;;22.40;100.00;97085.16;5023860;28;20417;-82
2024/04/05 11:27:34;;;;;;;3.17;1.00;;;;;;;22.37;100.00;97083.13;5026534;28;20445;-81